Terminal Aerodrome Forecast
Issued by NWS

Home | Current Version | Previous Version | Text Only | Print | Product List | Glossary On
Versions: 1 2 3 4 5 6 7 8 9 10 11 12 13 14 15 16 17 18 19 20 21 22 23
333
FTUS41 KGYX 182332
TAFAUG
TAF
KAUG 182332Z 1900/1924 02007KT P6SM SCT025 BKN045 OVC080
      TEMPO 1901/1905 3SM -SHSN BR BKN025 OVC040
     FM190500 06004KT 1 1/2SM -SN BR BKN015 OVC025
     FM191300 VRB03KT 3SM BR OVC015
     FM191600 31004KT P6SM BKN025 OVC040=

USA.gov is the U.S. government's official web portal to all federal, state and local government web resources and services.